PWSweather.com
Personal Weather Stations
Station Observations
KNCCHINA3
Red Tractor Trail, China Grove, NC 28023

Red Tractor TrailChina Grove, NC 28023

Lat: 35.59751, Lon: -80.60201

Elevation: 800

Station Type: Oregon Scientific WMR 968

http://www.joesweathergarage.com

Latest ConditionsUpdated 4:45:08 PM EDT Saturday, Sep 24, 2016
Currently Today's Max Today's Min Today's Average
Temperature 90.5°F32.5°C 98.8°F37.1°C 62.4°F16.9°C 74.7°F23.7°C
Dew Point 64.2°F17.9°C 74.8°F23.8°C 62.4°F16.9°C 66.9°F19.4°C
Winds Calm Calm 5.2 mph NE8.4 kmh NE - 1.2 mph 1.9 kmh
Wind Gusts -- 7.6 mph12.2 kmh - -
Humidity 42% 100% 37% 82%
Pressure 30.00 in1015.9 mb 30.15 in1021.0 mb 30.00 in1015.9 mb -
Hour Temp Dew Point Humidity Winds Wind Gusts Pressure Precip Precip Rate Daily Precip Total
04:45 PM 90.5°F32.5°C 64.2°F17.9°C 42% Calm Calm -- 30.00 in1015.9 mb 0.00 in0.0 mm 0.00 in0.0 mm 0.00 in0.0 mm
04:40 PM 90.9°F32.7°C 64.5°F18.1°C 42% Calm Calm 4.4 mph7.1 kmh 30.00 in1015.9 mb 0.00 in0.0 mm 0.00 in0.0 mm 0.00 in0.0 mm
04:34 PM 90.9°F32.7°C 64.5°F18.1°C 42% 3.1 mph NNE5.0 kmh NNE 4.4 mph7.1 kmh 30.00 in1015.9 mb 0.00 in0.0 mm 0.00 in0.0 mm 0.00 in0.0 mm
04:29 PM 91.2°F32.9°C 64.8°F18.2°C 42% 2.3 mph SSE3.7 kmh SSE 4.4 mph7.1 kmh 30.00 in1015.9 mb 0.00 in0.0 mm 0.00 in0.0 mm 0.00 in0.0 mm
04:23 PM 91.2°F32.9°C 64.8°F18.2°C 42% 2.4 mph SSW3.9 kmh SSW 3.2 mph5.1 kmh 30.00 in1015.9 mb 0.00 in0.0 mm 0.00 in0.0 mm 0.00 in0.0 mm
04:19 PM 91.4°F33.0°C 64.2°F17.9°C 41% Calm Calm 2.6 mph4.2 kmh 30.00 in1015.9 mb 0.00 in0.0 mm 0.00 in0.0 mm 0.00 in0.0 mm
04:13 PM 91.8°F33.2°C 64.5°F18.1°C 41% 1.8 mph E2.9 kmh E 2.6 mph4.2 kmh 30.00 in1015.9 mb 0.00 in0.0 mm 0.00 in0.0 mm 0.00 in0.0 mm
04:08 PM 91.8°F33.2°C 64.5°F18.1°C 41% Calm Calm 3.2 mph5.1 kmh 30.00 in1015.9 mb 0.00 in0.0 mm 0.00 in0.0 mm 0.00 in0.0 mm
04:03 PM 91.6°F33.1°C 63.6°F17.6°C 40% 2.5 mph NE4.0 kmh NE 4.4 mph7.1 kmh 30.00 in1015.9 mb 0.00 in0.0 mm 0.00 in0.0 mm 0.00 in0.0 mm
03:58 PM 91.9°F33.3°C 63.8°F17.7°C 40% 2.8 mph E4.5 kmh E 6.8 mph10.9 kmh 30.00 in1015.9 mb 0.00 in0.0 mm 0.00 in0.0 mm 0.00 in0.0 mm
03:53 PM 92.1°F33.4°C 64.0°F17.8°C 40% 4.1 mph NE6.6 kmh NE 6.8 mph10.9 kmh 30.00 in1015.9 mb 0.00 in0.0 mm 0.00 in0.0 mm 0.00 in0.0 mm
03:48 PM 92.8°F33.8°C 64.6°F18.1°C 40% 5.2 mph NE8.4 kmh NE 6.2 mph10.0 kmh 30.03 in1016.9 mb 0.00 in0.0 mm 0.00 in0.0 mm 0.00 in0.0 mm
03:43 PM 93.0°F33.9°C 64.8°F18.2°C 40% 4.7 mph NE7.6 kmh NE 5.8 mph9.3 kmh 30.03 in1016.9 mb 0.00 in0.0 mm 0.00 in0.0 mm 0.00 in0.0 mm
03:38 PM 92.8°F33.8°C 64.6°F18.1°C 40% 3.9 mph NE6.3 kmh NE 6.2 mph10.0 kmh 30.03 in1016.9 mb 0.00 in0.0 mm 0.00 in0.0 mm 0.00 in0.0 mm
03:33 PM 93.7°F34.3°C 64.6°F18.1°C 39% 4.9 mph SE7.9 kmh SE 6.2 mph10.0 kmh 30.03 in1016.9 mb 0.00 in0.0 mm 0.00 in0.0 mm 0.00 in0.0 mm
03:28 PM 94.8°F34.9°C 66.4°F19.1°C 40% 4.3 mph SE6.9 kmh SE 6.2 mph10.0 kmh 30.03 in1016.9 mb 0.00 in0.0 mm 0.00 in0.0 mm 0.00 in0.0 mm
03:22 PM 96.1°F35.6°C 66.8°F19.3°C 39% Calm Calm 5.0 mph8.0 kmh 30.03 in1016.9 mb 0.00 in0.0 mm 0.00 in0.0 mm 0.00 in0.0 mm
03:17 PM 96.4°F35.8°C 67.9°F19.9°C 40% 2.7 mph SSE4.3 kmh SSE 5.0 mph8.0 kmh 30.03 in1016.9 mb 0.00 in0.0 mm 0.00 in0.0 mm 0.00 in0.0 mm
03:12 PM 96.4°F35.8°C 67.0°F19.4°C 39% 2.9 mph SSE4.7 kmh SSE 5.8 mph9.3 kmh 30.03 in1016.9 mb 0.00 in0.0 mm 0.00 in0.0 mm 0.00 in0.0 mm
03:07 PM 96.6°F35.9°C 66.3°F19.1°C 37% 5.0 mph SE8.0 kmh SE 5.8 mph9.3 kmh 30.03 in1016.9 mb 0.00 in0.0 mm 0.00 in0.0 mm 0.00 in0.0 mm
03:02 PM 97.7°F36.5°C 68.2°F20.1°C 39% 2.1 mph ENE3.4 kmh ENE 5.0 mph8.0 kmh 30.06 in1017.9 mb 0.00 in0.0 mm 0.00 in0.0 mm 0.00 in0.0 mm
02:57 PM 97.0°F36.1°C 67.6°F19.8°C 39% 2.0 mph NE3.2 kmh NE 6.8 mph10.9 kmh 30.06 in1017.9 mb 0.00 in0.0 mm 0.00 in0.0 mm 0.00 in0.0 mm
02:52 PM 96.3°F35.7°C 66.9°F19.4°C 39% 4.5 mph NE7.2 kmh NE 6.8 mph10.9 kmh 30.06 in1017.9 mb 0.00 in0.0 mm 0.00 in0.0 mm 0.00 in0.0 mm
02:47 PM 96.1°F35.6°C 67.6°F19.8°C 40% 3.8 mph SW6.1 kmh SW 5.4 mph8.7 kmh 30.06 in1017.9 mb 0.00 in0.0 mm 0.00 in0.0 mm 0.00 in0.0 mm
02:42 PM 96.3°F35.7°C 66.9°F19.4°C 39% 3.8 mph WSW6.1 kmh WSW 5.4 mph8.7 kmh 30.06 in1017.9 mb 0.00 in0.0 mm 0.00 in0.0 mm 0.00 in0.0 mm
02:37 PM 97.0°F36.1°C 67.6°F19.8°C 39% 2.7 mph NW4.3 kmh NW 6.2 mph10.0 kmh 30.06 in1017.9 mb 0.00 in0.0 mm 0.00 in0.0 mm 0.00 in0.0 mm
02:32 PM 95.5°F35.3°C 67.1°F19.5°C 40% 3.9 mph WSW6.3 kmh WSW 6.2 mph10.0 kmh 30.06 in1017.9 mb 0.00 in0.0 mm 0.00 in0.0 mm 0.00 in0.0 mm
02:27 PM 96.4°F35.8°C 67.9°F19.9°C 40% 3.2 mph SW5.1 kmh SW 4.4 mph7.1 kmh 30.06 in1017.9 mb 0.00 in0.0 mm 0.00 in0.0 mm 0.00 in0.0 mm
02:20 PM 98.2°F36.8°C 69.5°F20.8°C 40% 2.5 mph S4.0 kmh S 3.2 mph5.1 kmh 30.06 in1017.9 mb 0.00 in0.0 mm 0.00 in0.0 mm 0.00 in0.0 mm
02:15 PM 98.6°F37.0°C 69.0°F20.6°C 39% 2.5 mph NNE4.0 kmh NNE 5.0 mph8.0 kmh 30.03 in1016.9 mb 0.00 in0.0 mm 0.00 in0.0 mm 0.00 in0.0 mm
02:09 PM 98.1°F36.7°C 70.2°F21.2°C 41% 3.4 mph NNE5.5 kmh NNE 5.0 mph8.0 kmh 30.03 in1016.9 mb 0.00 in0.0 mm 0.00 in0.0 mm 0.00 in0.0 mm
02:04 PM 98.8°F37.1°C 71.6°F22.0°C 42% 2.2 mph E3.5 kmh E 3.2 mph5.1 kmh 30.03 in1016.9 mb 0.00 in0.0 mm 0.00 in0.0 mm 0.00 in0.0 mm
01:59 PM 97.0°F36.1°C 70.0°F21.1°C 42% 3.2 mph ESE5.1 kmh ESE 5.8 mph9.3 kmh 30.06 in1017.9 mb 0.00 in0.0 mm 0.00 in0.0 mm 0.00 in0.0 mm
01:54 PM 96.8°F36.0°C 69.0°F20.6°C 41% 2.4 mph NE3.9 kmh NE 5.8 mph9.3 kmh 30.06 in1017.9 mb 0.00 in0.0 mm 0.00 in0.0 mm 0.00 in0.0 mm
01:49 PM 95.5°F35.3°C 69.5°F20.8°C 43% 2.7 mph WNW4.3 kmh WNW 5.8 mph9.3 kmh 30.06 in1017.9 mb 0.00 in0.0 mm 0.00 in0.0 mm 0.00 in0.0 mm
01:44 PM 94.5°F34.7°C 69.3°F20.7°C 44% 3.7 mph W6.0 kmh W 5.8 mph9.3 kmh 30.06 in1017.9 mb 0.00 in0.0 mm 0.00 in0.0 mm 0.00 in0.0 mm
01:39 PM 94.1°F34.5°C 68.9°F20.5°C 44% 3.5 mph WSW5.6 kmh WSW 6.8 mph10.9 kmh 30.06 in1017.9 mb 0.00 in0.0 mm 0.00 in0.0 mm 0.00 in0.0 mm
01:34 PM 93.6°F34.2°C 69.2°F20.7°C 45% 4.0 mph SW6.4 kmh SW 6.8 mph10.9 kmh 30.06 in1017.9 mb 0.00 in0.0 mm 0.00 in0.0 mm 0.00 in0.0 mm
01:28 PM 93.2°F34.0°C 69.6°F20.9°C 46% 3.0 mph SSW4.8 kmh SSW 4.0 mph6.4 kmh 30.09 in1019.0 mb 0.00 in0.0 mm 0.00 in0.0 mm 0.00 in0.0 mm
01:23 PM 91.8°F33.2°C 67.6°F19.8°C 45% 2.3 mph WSW3.7 kmh WSW 4.0 mph6.4 kmh 30.09 in1019.0 mb 0.00 in0.0 mm 0.00 in0.0 mm 0.00 in0.0 mm
01:18 PM 91.6°F33.1°C 68.8°F20.4°C 47% 1.8 mph SSW2.9 kmh SSW 5.0 mph8.0 kmh 30.12 in1020.0 mb 0.00 in0.0 mm 0.00 in0.0 mm 0.00 in0.0 mm
01:13 PM 90.7°F32.6°C 68.7°F20.4°C 48% 3.1 mph SW5.0 kmh SW 5.0 mph8.0 kmh 30.12 in1020.0 mb 0.00 in0.0 mm 0.00 in0.0 mm 0.00 in0.0 mm
01:07 PM 90.3°F32.4°C 68.3°F20.2°C 48% 3.5 mph WSW5.6 kmh WSW 5.0 mph8.0 kmh 30.12 in1020.0 mb 0.00 in0.0 mm 0.00 in0.0 mm 0.00 in0.0 mm
01:02 PM 90.9°F32.7°C 70.9°F21.6°C 52% 2.2 mph NE3.5 kmh NE 5.0 mph8.0 kmh 30.12 in1020.0 mb 0.00 in0.0 mm 0.00 in0.0 mm 0.00 in0.0 mm
12:57 PM 90.1°F32.3°C 70.8°F21.6°C 53% 2.9 mph NE4.7 kmh NE 5.8 mph9.3 kmh 30.12 in1020.0 mb 0.00 in0.0 mm 0.00 in0.0 mm 0.00 in0.0 mm
12:52 PM 89.4°F31.9°C 70.1°F21.2°C 53% 4.8 mph NE7.7 kmh NE 5.8 mph9.3 kmh 30.12 in1020.0 mb 0.00 in0.0 mm 0.00 in0.0 mm 0.00 in0.0 mm
12:47 PM 89.1°F31.7°C 71.1°F21.7°C 55% Calm Calm 5.8 mph9.3 kmh 30.15 in1021.0 mb 0.00 in0.0 mm 0.00 in0.0 mm 0.00 in0.0 mm
12:42 PM 88.3°F31.3°C 70.3°F21.3°C 55% 4.6 mph SE7.4 kmh SE 5.8 mph9.3 kmh 30.15 in1021.0 mb 0.00 in0.0 mm 0.00 in0.0 mm 0.00 in0.0 mm
12:37 PM 88.0°F31.1°C 71.2°F21.8°C 57% 2.4 mph ENE3.9 kmh ENE 5.4 mph8.7 kmh 30.15 in1021.0 mb 0.00 in0.0 mm 0.00 in0.0 mm 0.00 in0.0 mm
12:32 PM 87.4°F30.8°C 71.2°F21.8°C 58% Calm Calm 5.0 mph8.0 kmh 30.12 in1020.0 mb 0.00 in0.0 mm 0.00 in0.0 mm 0.00 in0.0 mm
12:27 PM 87.1°F30.6°C 70.4°F21.3°C 57% 3.2 mph NE5.1 kmh NE 5.4 mph8.7 kmh 30.12 in1020.0 mb 0.00 in0.0 mm 0.00 in0.0 mm 0.00 in0.0 mm
12:22 PM 86.7°F30.4°C 71.7°F22.1°C 61% 3.8 mph E6.1 kmh E 5.4 mph8.7 kmh 30.12 in1020.0 mb 0.00 in0.0 mm 0.00 in0.0 mm 0.00 in0.0 mm
12:16 PM 86.5°F30.3°C 71.5°F21.9°C 61% 3.0 mph ENE4.8 kmh ENE 5.4 mph8.7 kmh 30.12 in1020.0 mb 0.00 in0.0 mm 0.00 in0.0 mm 0.00 in0.0 mm
12:11 PM 86.0°F30.0°C 72.1°F22.3°C 63% 3.7 mph E6.0 kmh E 5.8 mph9.3 kmh 30.12 in1020.0 mb 0.00 in0.0 mm 0.00 in0.0 mm 0.00 in0.0 mm
12:06 PM 85.5°F29.7°C 71.6°F22.0°C 63% 3.9 mph ESE6.3 kmh ESE 5.8 mph9.3 kmh 30.12 in1020.0 mb 0.00 in0.0 mm 0.00 in0.0 mm 0.00 in0.0 mm
12:01 PM 85.1°F29.5°C 71.7°F22.1°C 64% 3.8 mph E6.1 kmh E 6.2 mph10.0 kmh 30.12 in1020.0 mb 0.00 in0.0 mm 0.00 in0.0 mm 0.00 in0.0 mm
11:53 AM 84.4°F29.1°C 71.6°F22.0°C 65% 2.9 mph NE4.7 kmh NE 5.8 mph9.3 kmh 30.12 in1020.0 mb 0.00 in0.0 mm 0.00 in0.0 mm 0.00 in0.0 mm
11:48 AM 84.2°F29.0°C 71.4°F21.9°C 65% 4.1 mph NNE6.6 kmh NNE 7.6 mph12.2 kmh 30.12 in1020.0 mb 0.00 in0.0 mm 0.00 in0.0 mm 0.00 in0.0 mm
11:42 AM 84.0°F28.9°C 72.2°F22.3°C 67% 5.1 mph NE8.2 kmh NE 7.6 mph12.2 kmh 30.12 in1020.0 mb 0.00 in0.0 mm 0.00 in0.0 mm 0.00 in0.0 mm
11:37 AM 83.5°F28.6°C 73.5°F23.1°C 72% 2.4 mph E3.9 kmh E 5.8 mph9.3 kmh 30.12 in1020.0 mb 0.00 in0.0 mm 0.00 in0.0 mm 0.00 in0.0 mm
11:32 AM 83.1°F28.4°C 72.7°F22.6°C 70% 3.9 mph NE6.3 kmh NE 6.2 mph10.0 kmh 30.09 in1019.0 mb 0.00 in0.0 mm 0.00 in0.0 mm 0.00 in0.0 mm
11:27 AM 82.6°F28.1°C 72.2°F22.3°C 70% 2.8 mph NNE4.5 kmh NNE 6.2 mph10.0 kmh 30.09 in1019.0 mb 0.00 in0.0 mm 0.00 in0.0 mm 0.00 in0.0 mm
11:21 AM 82.2°F27.9°C 74.0°F23.3°C 76% 2.3 mph E3.7 kmh E 5.0 mph8.0 kmh 30.09 in1019.0 mb 0.00 in0.0 mm 0.00 in0.0 mm 0.00 in0.0 mm
11:16 AM 81.7°F27.6°C 73.9°F23.3°C 77% 2.6 mph NNE4.2 kmh NNE 4.0 mph6.4 kmh 30.12 in1020.0 mb 0.00 in0.0 mm 0.00 in0.0 mm 0.00 in0.0 mm
11:11 AM 81.3°F27.4°C 74.8°F23.8°C 80% Calm Calm 5.0 mph8.0 kmh 30.12 in1020.0 mb 0.00 in0.0 mm 0.00 in0.0 mm 0.00 in0.0 mm
11:05 AM 80.4°F26.9°C 74.3°F23.5°C 81% 3.2 mph NE5.1 kmh NE 5.4 mph8.7 kmh 30.12 in1020.0 mb 0.00 in0.0 mm 0.00 in0.0 mm 0.00 in0.0 mm
11:00 AM 79.7°F26.5°C 73.2°F22.9°C 80% 3.5 mph NE5.6 kmh NE 5.4 mph8.7 kmh 30.09 in1019.0 mb 0.00 in0.0 mm 0.00 in0.0 mm 0.00 in0.0 mm
10:55 AM 79.2°F26.2°C 73.9°F23.3°C 84% 2.1 mph NE3.4 kmh NE 5.4 mph8.7 kmh 30.09 in1019.0 mb 0.00 in0.0 mm 0.00 in0.0 mm 0.00 in0.0 mm
10:49 AM 78.6°F25.9°C 73.7°F23.2°C 85% 3.5 mph NNE5.6 kmh NNE 5.4 mph8.7 kmh 30.09 in1019.0 mb 0.00 in0.0 mm 0.00 in0.0 mm 0.00 in0.0 mm
10:44 AM 78.1°F25.6°C 73.5°F23.1°C 86% 2.2 mph NE3.5 kmh NE 5.4 mph8.7 kmh 30.09 in1019.0 mb 0.00 in0.0 mm 0.00 in0.0 mm 0.00 in0.0 mm
10:37 AM 77.5°F25.3°C 73.7°F23.2°C 88% 3.4 mph NNE5.5 kmh NNE 5.0 mph8.0 kmh 30.09 in1019.0 mb 0.00 in0.0 mm 0.00 in0.0 mm 0.00 in0.0 mm
10:32 AM 77.2°F25.1°C 74.1°F23.4°C 90% 2.7 mph NE4.3 kmh NE 6.8 mph10.9 kmh 30.12 in1020.0 mb 0.00 in0.0 mm 0.00 in0.0 mm 0.00 in0.0 mm
10:27 AM 76.8°F24.9°C 74.1°F23.4°C 91% 5.1 mph NE8.2 kmh NE 6.8 mph10.9 kmh 30.12 in1020.0 mb 0.00 in0.0 mm 0.00 in0.0 mm 0.00 in0.0 mm
10:22 AM 76.3°F24.6°C 74.3°F23.5°C 94% 3.3 mph NE5.3 kmh NE 4.4 mph7.1 kmh 30.12 in1020.0 mb 0.00 in0.0 mm 0.00 in0.0 mm 0.00 in0.0 mm
10:17 AM 75.6°F24.2°C 74.6°F23.7°C 97% Calm Calm 5.0 mph8.0 kmh 30.12 in1020.0 mb 0.00 in0.0 mm 0.00 in0.0 mm 0.00 in0.0 mm
10:12 AM 75.2°F24.0°C 74.2°F23.4°C 97% 2.0 mph NE3.2 kmh NE 5.0 mph8.0 kmh 30.12 in1020.0 mb 0.00 in0.0 mm 0.00 in0.0 mm 0.00 in0.0 mm
10:07 AM 74.7°F23.7°C 74.4°F23.6°C 99% 2.3 mph ENE3.7 kmh ENE 2.6 mph4.2 kmh 30.12 in1020.0 mb 0.00 in0.0 mm 0.00 in0.0 mm 0.00 in0.0 mm
10:02 AM 74.3°F23.5°C 74.3°F23.5°C 100% Calm Calm 3.2 mph5.1 kmh 30.12 in1020.0 mb 0.00 in0.0 mm 0.00 in0.0 mm 0.00 in0.0 mm
09:57 AM 73.8°F23.2°C 73.8°F23.2°C 100% 2.5 mph ENE4.0 kmh ENE 3.2 mph5.1 kmh 30.12 in1020.0 mb 0.00 in0.0 mm 0.00 in0.0 mm 0.00 in0.0 mm
09:52 AM 73.2°F22.9°C 73.2°F22.9°C 100% 2.7 mph ENE4.3 kmh ENE 3.2 mph5.1 kmh 30.12 in1020.0 mb 0.00 in0.0 mm 0.00 in0.0 mm 0.00 in0.0 mm
09:47 AM 72.9°F22.7°C 72.9°F22.7°C 100% Calm Calm 2.2 mph3.5 kmh 30.15 in1021.0 mb 0.00 in0.0 mm 0.00 in0.0 mm 0.00 in0.0 mm
09:42 AM 72.5°F22.5°C 72.5°F22.5°C 100% 1.9 mph ENE3.1 kmh ENE 2.2 mph3.5 kmh 30.15 in1021.0 mb 0.00 in0.0 mm 0.00 in0.0 mm 0.00 in0.0 mm
09:36 AM 71.8°F22.1°C 71.8°F22.1°C 100% Calm Calm -- 30.15 in1021.0 mb 0.00 in0.0 mm 0.00 in0.0 mm 0.00 in0.0 mm
09:31 AM 71.2°F21.8°C 71.2°F21.8°C 100% Calm Calm -- 30.12 in1020.0 mb 0.00 in0.0 mm 0.00 in0.0 mm 0.00 in0.0 mm
09:26 AM 70.7°F21.5°C 70.7°F21.5°C 100% Calm Calm -- 30.12 in1020.0 mb 0.00 in0.0 mm 0.00 in0.0 mm 0.00 in0.0 mm
09:21 AM 70.0°F21.1°C 70.0°F21.1°C 100% Calm Calm -- 30.12 in1020.0 mb 0.00 in0.0 mm 0.00 in0.0 mm 0.00 in0.0 mm
09:16 AM 68.9°F20.5°C 68.9°F20.5°C 100% Calm Calm -- 30.12 in1020.0 mb 0.00 in0.0 mm 0.00 in0.0 mm 0.00 in0.0 mm
09:11 AM 68.4°F20.2°C 68.4°F20.2°C 100% Calm Calm -- 30.12 in1020.0 mb 0.00 in0.0 mm 0.00 in0.0 mm 0.00 in0.0 mm
09:05 AM 67.8°F19.9°C 67.8°F19.9°C 100% Calm Calm -- 30.12 in1020.0 mb 0.00 in0.0 mm 0.00 in0.0 mm 0.00 in0.0 mm
09:01 AM 67.5°F19.7°C 67.5°F19.7°C 100% Calm Calm -- 30.12 in1020.0 mb 0.00 in0.0 mm 0.00 in0.0 mm 0.00 in0.0 mm
08:55 AM 67.1°F19.5°C 67.1°F19.5°C 100% Calm Calm -- 30.12 in1020.0 mb 0.00 in0.0 mm 0.00 in0.0 mm 0.00 in0.0 mm
08:51 AM 66.7°F19.3°C 66.7°F19.3°C 100% Calm Calm -- 30.12 in1020.0 mb 0.00 in0.0 mm 0.00 in0.0 mm 0.00 in0.0 mm
08:46 AM 66.4°F19.1°C 66.4°F19.1°C 100% Calm Calm -- 30.12 in1020.0 mb 0.00 in0.0 mm 0.00 in0.0 mm 0.00 in0.0 mm
08:41 AM 66.0°F18.9°C 66.0°F18.9°C 100% Calm Calm -- 30.12 in1020.0 mb 0.00 in0.0 mm 0.00 in0.0 mm 0.00 in0.0 mm
08:35 AM 65.7°F18.7°C 65.7°F18.7°C 100% Calm Calm -- 30.12 in1020.0 mb 0.00 in0.0 mm 0.00 in0.0 mm 0.00 in0.0 mm
08:30 AM 65.3°F18.5°C 65.3°F18.5°C 100% Calm Calm -- 30.12 in1020.0 mb 0.00 in0.0 mm 0.00 in0.0 mm 0.00 in0.0 mm
08:25 AM 64.8°F18.2°C 64.8°F18.2°C 100% Calm Calm -- 30.12 in1020.0 mb 0.00 in0.0 mm 0.00 in0.0 mm 0.00 in0.0 mm
08:20 AM 64.4°F18.0°C 64.4°F18.0°C 100% Calm Calm -- 30.12 in1020.0 mb 0.00 in0.0 mm 0.00 in0.0 mm 0.00 in0.0 mm
08:14 AM 64.0°F17.8°C 64.0°F17.8°C 100% Calm Calm -- 30.12 in1020.0 mb 0.00 in0.0 mm 0.00 in0.0 mm 0.00 in0.0 mm
08:09 AM 63.7°F17.6°C 63.7°F17.6°C 100% Calm Calm -- 30.12 in1020.0 mb 0.00 in0.0 mm 0.00 in0.0 mm 0.00 in0.0 mm
08:04 AM 63.5°F17.5°C 63.5°F17.5°C 100% Calm Calm -- 30.12 in1020.0 mb 0.00 in0.0 mm 0.00 in0.0 mm 0.00 in0.0 mm
07:59 AM 63.3°F17.4°C 63.3°F17.4°C 100% Calm Calm -- 30.09 in1019.0 mb 0.00 in0.0 mm 0.00 in0.0 mm 0.00 in0.0 mm
07:54 AM 63.1°F17.3°C 63.1°F17.3°C 100% Calm Calm -- 30.09 in1019.0 mb 0.00 in0.0 mm 0.00 in0.0 mm 0.00 in0.0 mm
07:49 AM 63.1°F17.3°C 63.1°F17.3°C 100% Calm Calm -- 30.09 in1019.0 mb 0.00 in0.0 mm 0.00 in0.0 mm 0.00 in0.0 mm
07:43 AM 62.8°F17.1°C 62.8°F17.1°C 100% Calm Calm -- 30.09 in1019.0 mb 0.00 in0.0 mm 0.00 in0.0 mm 0.00 in0.0 mm
07:38 AM 62.6°F17.0°C 62.6°F17.0°C 100% Calm Calm -- 30.09 in1019.0 mb 0.00 in0.0 mm 0.00 in0.0 mm 0.00 in0.0 mm
07:32 AM 62.4°F16.9°C 62.4°F16.9°C 100% Calm Calm -- 30.09 in1019.0 mb 0.00 in0.0 mm 0.00 in0.0 mm 0.00 in0.0 mm
07:27 AM 62.4°F16.9°C 62.4°F16.9°C 100% Calm Calm -- 30.09 in1019.0 mb 0.00 in0.0 mm 0.00 in0.0 mm 0.00 in0.0 mm
07:22 AM 62.4°F16.9°C 62.4°F16.9°C 100% Calm Calm -- 30.09 in1019.0 mb 0.00 in0.0 mm 0.00 in0.0 mm 0.00 in0.0 mm
07:17 AM 62.4°F16.9°C 62.4°F16.9°C 100% Calm Calm -- 30.06 in1017.9 mb 0.00 in0.0 mm 0.00 in0.0 mm 0.00 in0.0 mm
07:11 AM 62.6°F17.0°C 62.6°F17.0°C 100% Calm Calm -- 30.06 in1017.9 mb 0.00 in0.0 mm 0.00 in0.0 mm 0.00 in0.0 mm
07:06 AM 62.6°F17.0°C 62.6°F17.0°C 100% Calm Calm -- 30.06 in1017.9 mb 0.00 in0.0 mm 0.00 in0.0 mm 0.00 in0.0 mm
07:00 AM 62.6°F17.0°C 62.6°F17.0°C 100% Calm Calm -- 30.09 in1019.0 mb 0.00 in0.0 mm 0.00 in0.0 mm 0.00 in0.0 mm
06:55 AM 62.8°F17.1°C 62.8°F17.1°C 100% Calm Calm -- 30.09 in1019.0 mb 0.00 in0.0 mm 0.00 in0.0 mm 0.00 in0.0 mm
06:49 AM 62.8°F17.1°C 62.8°F17.1°C 100% Calm Calm -- 30.09 in1019.0 mb 0.00 in0.0 mm 0.00 in0.0 mm 0.00 in0.0 mm
06:44 AM 63.0°F17.2°C 63.0°F17.2°C 100% Calm Calm -- 30.06 in1017.9 mb 0.00 in0.0 mm 0.00 in0.0 mm 0.00 in0.0 mm
06:39 AM 63.0°F17.2°C 63.0°F17.2°C 100% Calm Calm -- 30.06 in1017.9 mb 0.00 in0.0 mm 0.00 in0.0 mm 0.00 in0.0 mm
06:34 AM 63.0°F17.2°C 63.0°F17.2°C 100% Calm Calm -- 30.06 in1017.9 mb 0.00 in0.0 mm 0.00 in0.0 mm 0.00 in0.0 mm
06:29 AM 63.0°F17.2°C 63.0°F17.2°C 100% Calm Calm -- 30.06 in1017.9 mb 0.00 in0.0 mm 0.00 in0.0 mm 0.00 in0.0 mm
06:24 AM 63.1°F17.3°C 63.1°F17.3°C 100% Calm Calm -- 30.06 in1017.9 mb 0.00 in0.0 mm 0.00 in0.0 mm 0.00 in0.0 mm
06:18 AM 63.1°F17.3°C 63.1°F17.3°C 100% Calm Calm -- 30.06 in1017.9 mb 0.00 in0.0 mm 0.00 in0.0 mm 0.00 in0.0 mm
06:13 AM 63.1°F17.3°C 63.1°F17.3°C 100% Calm Calm -- 30.06 in1017.9 mb 0.00 in0.0 mm 0.00 in0.0 mm 0.00 in0.0 mm
06:08 AM 63.3°F17.4°C 63.3°F17.4°C 100% Calm Calm -- 30.06 in1017.9 mb 0.00 in0.0 mm 0.00 in0.0 mm 0.00 in0.0 mm
06:03 AM 63.3°F17.4°C 63.3°F17.4°C 100% Calm Calm -- 30.06 in1017.9 mb 0.00 in0.0 mm 0.00 in0.0 mm 0.00 in0.0 mm
05:58 AM 63.3°F17.4°C 63.3°F17.4°C 100% Calm Calm -- 30.06 in1017.9 mb 0.00 in0.0 mm 0.00 in0.0 mm 0.00 in0.0 mm
05:53 AM 63.3°F17.4°C 63.3°F17.4°C 100% Calm Calm -- 30.06 in1017.9 mb 0.00 in0.0 mm 0.00 in0.0 mm 0.00 in0.0 mm
05:48 AM 63.3°F17.4°C 63.3°F17.4°C 100% Calm Calm -- 30.03 in1016.9 mb 0.00 in0.0 mm 0.00 in0.0 mm 0.00 in0.0 mm
05:43 AM 63.5°F17.5°C 63.5°F17.5°C 100% Calm Calm -- 30.03 in1016.9 mb 0.00 in0.0 mm 0.00 in0.0 mm 0.00 in0.0 mm
05:37 AM 63.5°F17.5°C 63.5°F17.5°C 100% Calm Calm -- 30.03 in1016.9 mb 0.00 in0.0 mm 0.00 in0.0 mm 0.00 in0.0 mm
05:32 AM 63.5°F17.5°C 63.5°F17.5°C 100% Calm Calm -- 30.06 in1017.9 mb 0.00 in0.0 mm 0.00 in0.0 mm 0.00 in0.0 mm
05:27 AM 63.3°F17.4°C 63.3°F17.4°C 100% Calm Calm -- 30.06 in1017.9 mb 0.00 in0.0 mm 0.00 in0.0 mm 0.00 in0.0 mm
05:22 AM 63.3°F17.4°C 63.3°F17.4°C 100% Calm Calm -- 30.06 in1017.9 mb 0.00 in0.0 mm 0.00 in0.0 mm 0.00 in0.0 mm
05:17 AM 63.3°F17.4°C 63.3°F17.4°C 100% Calm Calm -- 30.03 in1016.9 mb 0.00 in0.0 mm 0.00 in0.0 mm 0.00 in0.0 mm
05:12 AM 63.5°F17.5°C 63.5°F17.5°C 100% Calm Calm -- 30.03 in1016.9 mb 0.00 in0.0 mm 0.00 in0.0 mm 0.00 in0.0 mm
05:07 AM 63.5°F17.5°C 63.5°F17.5°C 100% Calm Calm -- 30.03 in1016.9 mb 0.00 in0.0 mm 0.00 in0.0 mm 0.00 in0.0 mm
05:02 AM 63.5°F17.5°C 63.5°F17.5°C 100% Calm Calm -- 30.06 in1017.9 mb 0.00 in0.0 mm 0.00 in0.0 mm 0.00 in0.0 mm
04:57 AM 63.5°F17.5°C 63.5°F17.5°C 100% Calm Calm -- 30.06 in1017.9 mb 0.00 in0.0 mm 0.00 in0.0 mm 0.00 in0.0 mm
04:52 AM 63.5°F17.5°C 63.5°F17.5°C 100% Calm Calm -- 30.06 in1017.9 mb 0.00 in0.0 mm 0.00 in0.0 mm 0.00 in0.0 mm
04:47 AM 63.7°F17.6°C 63.7°F17.6°C 100% Calm Calm -- 30.06 in1017.9 mb 0.00 in0.0 mm 0.00 in0.0 mm 0.00 in0.0 mm
04:42 AM 63.7°F17.6°C 63.7°F17.6°C 100% Calm Calm -- 30.06 in1017.9 mb 0.00 in0.0 mm 0.00 in0.0 mm 0.00 in0.0 mm
04:37 AM 63.7°F17.6°C 63.7°F17.6°C 100% Calm Calm -- 30.06 in1017.9 mb 0.00 in0.0 mm 0.00 in0.0 mm 0.00 in0.0 mm
04:32 AM 63.9°F17.7°C 63.9°F17.7°C 100% Calm Calm -- 30.06 in1017.9 mb 0.00 in0.0 mm 0.00 in0.0 mm 0.00 in0.0 mm
04:27 AM 63.9°F17.7°C 63.9°F17.7°C 100% Calm Calm -- 30.06 in1017.9 mb 0.00 in0.0 mm 0.00 in0.0 mm 0.00 in0.0 mm
04:22 AM 64.0°F17.8°C 64.0°F17.8°C 100% Calm Calm -- 30.06 in1017.9 mb 0.00 in0.0 mm 0.00 in0.0 mm 0.00 in0.0 mm
04:17 AM 64.2°F17.9°C 64.2°F17.9°C 100% Calm Calm -- 30.06 in1017.9 mb 0.00 in0.0 mm 0.00 in0.0 mm 0.00 in0.0 mm
04:12 AM 64.2°F17.9°C 64.2°F17.9°C 100% Calm Calm -- 30.06 in1017.9 mb 0.00 in0.0 mm 0.00 in0.0 mm 0.00 in0.0 mm
04:07 AM 64.2°F17.9°C 64.2°F17.9°C 100% Calm Calm -- 30.06 in1017.9 mb 0.00 in0.0 mm 0.00 in0.0 mm 0.00 in0.0 mm
04:02 AM 64.2°F17.9°C 64.2°F17.9°C 100% Calm Calm -- 30.09 in1019.0 mb 0.00 in0.0 mm 0.00 in0.0 mm 0.00 in0.0 mm
03:57 AM 64.2°F17.9°C 64.2°F17.9°C 100% Calm Calm -- 30.09 in1019.0 mb 0.00 in0.0 mm 0.00 in0.0 mm 0.00 in0.0 mm
03:52 AM 64.2°F17.9°C 64.2°F17.9°C 100% Calm Calm -- 30.09 in1019.0 mb 0.00 in0.0 mm 0.00 in0.0 mm 0.00 in0.0 mm
03:45 AM 64.2°F17.9°C 64.2°F17.9°C 100% Calm Calm -- 30.03 in1016.9 mb 0.00 in0.0 mm 0.00 in0.0 mm 0.00 in0.0 mm
03:40 AM 64.2°F17.9°C 64.2°F17.9°C 100% Calm Calm -- 30.03 in1016.9 mb 0.00 in0.0 mm 0.00 in0.0 mm 0.00 in0.0 mm
03:34 AM 64.4°F18.0°C 64.4°F18.0°C 100% Calm Calm -- 30.03 in1016.9 mb 0.00 in0.0 mm 0.00 in0.0 mm 0.00 in0.0 mm
03:29 AM 64.4°F18.0°C 64.4°F18.0°C 100% Calm Calm -- 30.06 in1017.9 mb 0.00 in0.0 mm 0.00 in0.0 mm 0.00 in0.0 mm
03:24 AM 64.4°F18.0°C 64.4°F18.0°C 100% Calm Calm -- 30.06 in1017.9 mb 0.00 in0.0 mm 0.00 in0.0 mm 0.00 in0.0 mm
03:19 AM 64.4°F18.0°C 64.4°F18.0°C 100% Calm Calm -- 30.06 in1017.9 mb 0.00 in0.0 mm 0.00 in0.0 mm 0.00 in0.0 mm
03:14 AM 64.6°F18.1°C 64.6°F18.1°C 100% Calm Calm -- 30.06 in1017.9 mb 0.00 in0.0 mm 0.00 in0.0 mm 0.00 in0.0 mm
03:09 AM 64.6°F18.1°C 64.6°F18.1°C 100% Calm Calm -- 30.06 in1017.9 mb 0.00 in0.0 mm 0.00 in0.0 mm 0.00 in0.0 mm
03:03 AM 64.8°F18.2°C 64.8°F18.2°C 100% Calm Calm -- 30.06 in1017.9 mb 0.00 in0.0 mm 0.00 in0.0 mm 0.00 in0.0 mm
02:58 AM 64.8°F18.2°C 64.8°F18.2°C 100% Calm Calm -- 30.06 in1017.9 mb 0.00 in0.0 mm 0.00 in0.0 mm 0.00 in0.0 mm
02:53 AM 64.8°F18.2°C 64.8°F18.2°C 100% Calm Calm -- 30.06 in1017.9 mb 0.00 in0.0 mm 0.00 in0.0 mm 0.00 in0.0 mm
02:48 AM 64.9°F18.3°C 64.9°F18.3°C 100% Calm Calm -- 30.03 in1016.9 mb 0.00 in0.0 mm 0.00 in0.0 mm 0.00 in0.0 mm
02:43 AM 65.1°F18.4°C 65.1°F18.4°C 100% Calm Calm -- 30.03 in1016.9 mb 0.00 in0.0 mm 0.00 in0.0 mm 0.00 in0.0 mm
02:38 AM 65.1°F18.4°C 65.1°F18.4°C 100% Calm Calm -- 30.03 in1016.9 mb 0.00 in0.0 mm 0.00 in0.0 mm 0.00 in0.0 mm
02:33 AM 65.1°F18.4°C 65.1°F18.4°C 100% Calm Calm -- 30.03 in1016.9 mb 0.00 in0.0 mm 0.00 in0.0 mm 0.00 in0.0 mm
02:28 AM 65.1°F18.4°C 65.1°F18.4°C 100% Calm Calm -- 30.03 in1016.9 mb 0.00 in0.0 mm 0.00 in0.0 mm 0.00 in0.0 mm
02:21 AM 65.3°F18.5°C 65.3°F18.5°C 100% Calm Calm -- 30.03 in1016.9 mb 0.00 in0.0 mm 0.00 in0.0 mm 0.00 in0.0 mm
02:16 AM 65.3°F18.5°C 65.3°F18.5°C 100% Calm Calm -- 30.06 in1017.9 mb 0.00 in0.0 mm 0.00 in0.0 mm 0.00 in0.0 mm
02:10 AM 65.5°F18.6°C 65.5°F18.6°C 100% Calm Calm -- 30.06 in1017.9 mb 0.00 in0.0 mm 0.00 in0.0 mm 0.00 in0.0 mm
02:05 AM 65.5°F18.6°C 65.5°F18.6°C 100% Calm Calm -- 30.06 in1017.9 mb 0.00 in0.0 mm 0.00 in0.0 mm 0.00 in0.0 mm
01:59 AM 65.5°F18.6°C 65.5°F18.6°C 100% Calm Calm -- 30.03 in1016.9 mb 0.00 in0.0 mm 0.00 in0.0 mm 0.00 in0.0 mm
01:54 AM 65.5°F18.6°C 65.5°F18.6°C 100% Calm Calm -- 30.03 in1016.9 mb 0.00 in0.0 mm 0.00 in0.0 mm 0.00 in0.0 mm
01:48 AM 65.5°F18.6°C 65.5°F18.6°C 100% Calm Calm -- 30.06 in1017.9 mb 0.00 in0.0 mm 0.00 in0.0 mm 0.00 in0.0 mm
01:43 AM 65.7°F18.7°C 65.7°F18.7°C 100% Calm Calm -- 30.06 in1017.9 mb 0.00 in0.0 mm 0.00 in0.0 mm 0.00 in0.0 mm
01:38 AM 65.7°F18.7°C 65.7°F18.7°C 100% Calm Calm -- 30.06 in1017.9 mb 0.00 in0.0 mm 0.00 in0.0 mm 0.00 in0.0 mm
01:33 AM 65.7°F18.7°C 65.7°F18.7°C 100% Calm Calm -- 30.03 in1016.9 mb 0.00 in0.0 mm 0.00 in0.0 mm 0.00 in0.0 mm
01:27 AM 65.8°F18.8°C 65.8°F18.8°C 100% Calm Calm -- 30.03 in1016.9 mb 0.00 in0.0 mm 0.00 in0.0 mm 0.00 in0.0 mm
01:22 AM 66.0°F18.9°C 66.0°F18.9°C 100% Calm Calm -- 30.03 in1016.9 mb 0.00 in0.0 mm 0.00 in0.0 mm 0.00 in0.0 mm
01:16 AM 66.2°F19.0°C 66.2°F19.0°C 100% Calm Calm -- 30.06 in1017.9 mb 0.00 in0.0 mm 0.00 in0.0 mm 0.00 in0.0 mm
01:11 AM 66.2°F19.0°C 66.2°F19.0°C 100% Calm Calm -- 30.06 in1017.9 mb 0.00 in0.0 mm 0.00 in0.0 mm 0.00 in0.0 mm
01:06 AM 66.2°F19.0°C 66.2°F19.0°C 100% Calm Calm -- 30.06 in1017.9 mb 0.00 in0.0 mm 0.00 in0.0 mm 0.00 in0.0 mm
01:01 AM 66.2°F19.0°C 66.2°F19.0°C 100% Calm Calm -- 30.06 in1017.9 mb 0.00 in0.0 mm 0.00 in0.0 mm 0.00 in0.0 mm
12:56 AM 66.4°F19.1°C 66.4°F19.1°C 100% Calm Calm -- 30.06 in1017.9 mb 0.00 in0.0 mm 0.00 in0.0 mm 0.00 in0.0 mm
12:50 AM 66.4°F19.1°C 66.4°F19.1°C 100% Calm Calm -- 30.06 in1017.9 mb 0.00 in0.0 mm 0.00 in0.0 mm 0.00 in0.0 mm
12:45 AM 66.4°F19.1°C 66.4°F19.1°C 100% Calm Calm -- 30.06 in1017.9 mb 0.00 in0.0 mm 0.00 in0.0 mm 0.00 in0.0 mm
12:40 AM 66.6°F19.2°C 66.6°F19.2°C 100% Calm Calm -- 30.06 in1017.9 mb 0.00 in0.0 mm 0.00 in0.0 mm 0.00 in0.0 mm
12:35 AM 66.6°F19.2°C 66.6°F19.2°C 100% Calm Calm -- 30.06 in1017.9 mb 0.00 in0.0 mm 0.00 in0.0 mm 0.00 in0.0 mm
12:30 AM 66.7°F19.3°C 66.7°F19.3°C 100% Calm Calm -- 30.06 in1017.9 mb 0.00 in0.0 mm 0.00 in0.0 mm 0.00 in0.0 mm
12:25 AM 66.7°F19.3°C 66.7°F19.3°C 100% Calm Calm -- 30.06 in1017.9 mb 0.00 in0.0 mm 0.00 in0.0 mm 0.00 in0.0 mm
12:20 AM 66.7°F19.3°C 66.7°F19.3°C 100% Calm Calm -- 30.06 in1017.9 mb 0.00 in0.0 mm 0.00 in0.0 mm 0.00 in0.0 mm
12:15 AM 66.9°F19.4°C 66.9°F19.4°C 100% Calm Calm -- 30.06 in1017.9 mb 0.00 in0.0 mm 0.00 in0.0 mm 0.00 in0.0 mm
12:10 AM 66.9°F19.4°C 66.9°F19.4°C 100% Calm Calm -- 30.06 in1017.9 mb 0.00 in0.0 mm 0.00 in0.0 mm 0.00 in0.0 mm
12:05 AM 66.9°F19.4°C 66.9°F19.4°C 100% Calm Calm -- 30.06 in1017.9 mb 0.00 in0.0 mm 0.00 in0.0 mm 0.00 in0.0 mm
12:00 AM 67.1°F19.5°C 67.1°F19.5°C 100% Calm Calm -- 30.06 in1017.9 mb 0.00 in0.0 mm 0.00 in0.0 mm 0.00 in0.0 mm